Time;durP1;ratioP1;P1;durP2;ratioP2;P2;SDS_P1;SDS_P2;PMS_P1;PMS_P2;Temp;Humidity;BMP_temperature;BMP_pressure;BME280_temperature;BME280_humidity;BME280_pressure;Samples;Min_cycle;Max_cycle;Signal;HPM_P1;HPM_P2
2022/01/06 00:01:40;;;;;;;;;49.75;39.00;;;;;3.42;77.23;101733.97;5010916;28;45458;-66
2022/01/06 00:04:06;;;;;;;;;52.25;42.00;;;;;3.38;77.52;101725.19;5006394;28;45569;-66
2022/01/06 00:06:36;;;;;;;;;44.50;40.25;;;;;3.39;77.11;101726.06;5008937;28;46257;-66
2022/01/06 00:09:03;;;;;;;;;45.50;38.25;;;;;3.32;76.95;101719.25;5005448;28;45524;-66
2022/01/06 00:11:29;;;;;;;;;55.00;43.75;;;;;3.28;77.76;101723.06;5013264;28;45567;-66
2022/01/06 00:14:04;;;;;;;;;52.50;41.75;;;;;3.29;77.49;101730.19;5009531;28;45498;-66
2022/01/06 00:24:18;;;;;;;;;51.25;42.00;;;;;3.25;77.77;101740.19;5005160;28;45322;-67
2022/01/06 00:26:44;;;;;;;;;42.50;38.00;;;;;3.26;77.94;101741.06;5005976;28;45350;-67
2022/01/06 00:29:09;;;;;;;;;45.75;40.00;;;;;3.26;78.19;101738.38;5007858;28;45235;-67
2022/01/06 00:31:35;;;;;;;;;48.50;38.25;;;;;3.23;77.51;101746.56;5004958;28;45455;-67
2022/01/06 00:34:01;;;;;;;;;42.00;37.00;;;;;3.20;77.98;101749.44;5011194;28;45244;-67
2022/01/06 00:36:26;;;;;;;;;42.25;37.50;;;;;3.22;77.83;101756.44;5007128;28;45402;-67
2022/01/06 00:38:52;;;;;;;;;42.00;36.75;;;;;3.24;77.80;101748.31;5005679;28;45399;-67
2022/01/06 00:41:18;;;;;;;;;55.25;40.75;;;;;3.21;77.42;101753.88;5006306;28;45373;-67
2022/01/06 00:43:43;;;;;;;;;45.25;41.00;;;;;3.19;78.17;101753.94;5008521;28;45809;-67
2022/01/06 00:46:09;;;;;;;;;36.50;33.00;;;;;3.10;78.24;101757.94;5008632;28;46032;-67
2022/01/06 00:48:34;;;;;;;;;44.75;38.25;;;;;3.10;78.44;101755.25;5008982;28;45359;-67
2022/01/06 00:50:59;;;;;;;;;43.25;39.00;;;;;3.09;78.26;101758.88;5008337;28;45370;-67
2022/01/06 00:53:25;;;;;;;;;35.25;30.25;;;;;3.04;78.28;101763.63;5010014;28;45397;-67
2022/01/06 00:55:50;;;;;;;;;40.50;34.00;;;;;3.07;78.62;101750.03;5006416;28;45548;-67
2022/01/06 00:58:16;;;;;;;;;41.50;31.75;;;;;3.02;78.78;101751.22;5009376;28;45405;-67
2022/01/06 01:00:41;;;;;;;;;44.00;36.75;;;;;3.05;78.44;101753.75;5007839;28;45453;-67
2022/01/06 01:03:17;;;;;;;;;42.50;39.50;;;;;3.04;78.37;101758.25;5021593;28;45688;-67
2022/01/06 01:05:44;;;;;;;;;41.75;36.75;;;;;3.10;78.21;101759.75;5004410;28;45464;-67
2022/01/06 01:08:10;;;;;;;;;42.00;30.25;;;;;3.09;78.08;101756.19;5008939;28;45248;-67
2022/01/06 01:10:37;;;;;;;;;38.25;33.25;;;;;3.05;78.04;101751.94;5004910;28;45303;-67
2022/01/06 01:13:03;;;;;;;;;40.25;34.75;;;;;3.07;78.19;101758.06;5014134;28;45326;-67
2022/01/06 01:15:32;;;;;;;;;34.25;30.75;;;;;3.05;78.38;101757.31;5002732;28;47122;-67
2022/01/06 01:18:05;;;;;;;;;33.00;30.25;;;;;3.09;78.29;101758.88;5012711;28;45342;-67
2022/01/06 01:20:32;;;;;;;;;40.50;33.25;;;;;3.02;78.30;101754.75;5006816;28;45377;-67
2022/01/06 01:22:58;;;;;;;;;38.75;30.75;;;;;2.96;78.03;101747.00;5013427;28;45542;-67
2022/01/06 01:25:23;;;;;;;;;40.75;37.25;;;;;3.00;78.33;101763.81;5008518;28;45433;-67
2022/01/06 01:27:49;;;;;;;;;34.25;26.75;;;;;2.96;78.42;101757.75;5013017;28;45266;-67
2022/01/06 01:30:14;;;;;;;;;36.00;34.50;;;;;2.99;78.51;101759.44;5005096;28;45291;-67
2022/01/06 01:32:45;;;;;;;;;38.75;35.25;;;;;2.96;78.62;101764.94;5013515;28;45405;-66
2022/01/06 01:35:11;;;;;;;;;30.75;26.75;;;;;2.93;78.60;101762.38;5021104;28;47166;-67
2022/01/06 01:37:38;;;;;;;;;42.25;37.50;;;;;2.91;78.79;101758.94;5014531;28;45484;-67
2022/01/06 01:40:05;;;;;;;;;43.00;35.00;;;;;2.89;78.93;101761.69;5020521;28;45677;-67
2022/01/06 01:42:32;;;;;;;;;37.00;32.00;;;;;2.91;79.15;101773.22;5010281;28;45480;-67
2022/01/06 01:44:57;;;;;;;;;42.00;32.25;;;;;2.89;78.82;101774.22;5006136;28;45750;-67
2022/01/06 01:47:37;;;;;;;;;41.25;37.50;;;;;2.89;78.78;101779.59;5014044;28;45526;-68
2022/01/06 01:50:13;;;;;;;;;37.75;33.75;;;;;2.83;79.19;101777.22;5008877;28;45309;-67
2022/01/06 01:52:50;;;;;;;;;40.00;33.50;;;;;2.80;79.65;101769.31;5010321;28;45342;-66
2022/01/06 01:55:26;;;;;;;;;42.25;37.75;;;;;2.78;79.48;101772.06;5008175;28;46342;-66
2022/01/06 01:57:53;;;;;;;;;35.00;32.00;;;;;2.77;79.34;101781.06;5013152;28;45423;-67
2022/01/06 02:00:20;;;;;;;;;40.25;33.75;;;;;2.79;79.79;101781.84;5009967;28;45393;-66
2022/01/06 02:02:46;;;;;;;;;35.25;31.75;;;;;2.80;79.44;101782.72;5010254;28;45686;-66
2022/01/06 02:05:12;;;;;;;;;35.75;33.75;;;;;2.85;79.54;101792.28;5006558;28;45452;-66
2022/01/06 02:07:40;;;;;;;;;40.25;35.25;;;;;2.84;79.71;101781.66;5025868;28;45353;-66
2022/01/06 02:10:09;;;;;;;;;40.75;37.00;;;;;2.81;79.18;101782.66;5012032;28;45405;-66
2022/01/06 02:12:37;;;;;;;;;44.75;35.00;;;;;2.73;79.33;101784.84;5012980;28;45691;-66
2022/01/06 02:15:05;;;;;;;;;37.50;30.50;;;;;2.74;79.58;101781.22;5011099;28;47215;-66
2022/01/06 02:17:30;;;;;;;;;45.00;35.50;;;;;2.79;79.44;101792.59;5010342;28;45192;-66
2022/01/06 02:19:57;;;;;;;;;35.75;31.75;;;;;2.71;79.47;101798.31;5009216;28;45137;-66
2022/01/06 02:22:23;;;;;;;;;40.25;34.00;;;;;2.71;79.61;101802.81;5007855;28;45457;-66
2022/01/06 02:24:50;;;;;;;;;37.50;31.25;;;;;2.68;79.42;101800.28;5009494;28;45630;-66
2022/01/06 02:27:16;;;;;;;;;44.00;33.00;;;;;2.68;79.81;101798.47;5035501;28;45449;-66
2022/01/06 02:29:42;;;;;;;;;35.00;31.75;;;;;2.66;79.76;101778.88;5030736;28;45319;-66
2022/01/06 02:32:10;;;;;;;;;44.75;38.75;;;;;2.65;79.70;101792.38;5032163;28;45489;-66
2022/01/06 02:34:35;;;;;;;;;44.75;40.00;;;;;2.64;79.54;101787.94;5031836;28;47199;-66
2022/01/06 02:37:02;;;;;;;;;39.00;31.50;;;;;2.63;79.41;101791.59;5031246;28;45187;-66
2022/01/06 02:39:27;;;;;;;;;37.50;32.25;;;;;2.64;80.11;101791.50;5032817;28;45331;-66
2022/01/06 02:41:53;;;;;;;;;45.25;34.50;;;;;2.66;79.76;101795.00;5032039;28;45448;-66
2022/01/06 02:44:21;;;;;;;;;38.25;30.50;;;;;2.56;79.92;101777.56;5033427;28;45541;-66
2022/01/06 02:46:46;;;;;;;;;43.00;37.25;;;;;2.62;79.89;101789.84;5030161;28;45358;-66
2022/01/06 02:49:12;;;;;;;;;44.25;38.00;;;;;2.63;80.27;101787.06;5035139;28;45261;-66
2022/01/06 02:51:40;;;;;;;;;35.00;30.25;;;;;2.67;79.95;101796.72;5030707;28;45299;-66
2022/01/06 02:54:05;;;;;;;;;35.25;34.75;;;;;2.73;79.62;101795.56;5026187;28;46168;-66
2022/01/06 02:56:32;;;;;;;;;35.75;34.50;;;;;2.80;80.25;101799.69;5032764;28;45361;-66
2022/01/06 02:58:57;;;;;;;;;39.25;34.50;;;;;2.84;79.57;101804.00;5037252;28;45291;-66
2022/01/06 03:01:23;;;;;;;;;41.50;32.00;;;;;2.79;79.36;101806.00;5031339;28;45287;-66
2022/01/06 03:03:48;;;;;;;;;52.75;39.25;;;;;2.80;79.17;101804.19;5029833;28;45425;-66
2022/01/06 03:06:13;;;;;;;;;45.50;38.00;;;;;2.84;79.26;101808.47;5030211;28;45401;-66
2022/01/06 03:08:39;;;;;;;;;34.75;33.00;;;;;2.82;79.57;101807.69;5029402;28;45487;-66
2022/01/06 03:11:04;;;;;;;;;38.50;34.25;;;;;2.85;79.59;101819.13;5038078;28;45372;-66
2022/01/06 03:13:29;;;;;;;;;45.50;36.50;;;;;2.89;79.86;101827.91;5032214;28;46369;-66
2022/01/06 03:15:56;;;;;;;;;38.25;33.50;;;;;3.03;79.21;101829.00;5039146;28;45389;-66
2022/01/06 03:18:21;;;;;;;;;48.75;40.25;;;;;3.00;78.76;101829.13;5033254;28;45260;-67
2022/01/06 03:20:46;;;;;;;;;44.00;38.00;;;;;2.98;78.71;101824.78;5040150;28;45285;-66
2022/01/06 03:23:12;;;;;;;;;47.25;41.00;;;;;2.98;78.43;101822.97;5022709;28;47267;-66
2022/01/06 03:25:37;;;;;;;;;44.25;40.25;;;;;2.93;78.39;101816.94;5031306;28;45249;-66
2022/01/06 03:28:02;;;;;;;;;30.25;30.00;;;;;2.98;78.69;101822.13;5026596;28;45326;-66
2022/01/06 03:30:28;;;;;;;;;44.75;35.75;;;;;3.03;78.29;101826.31;5035585;28;45258;-66
2022/01/06 03:32:54;;;;;;;;;38.25;34.00;;;;;3.07;78.67;101824.31;5026955;28;46370;-66
2022/01/06 03:35:22;;;;;;;;;43.50;33.50;;;;;3.10;78.49;101832.25;5035963;28;45247;-69
2022/01/06 03:37:48;;;;;;;;;49.25;42.00;;;;;3.10;78.08;101821.50;5026705;28;45504;-66
2022/01/06 03:40:14;;;;;;;;;43.25;37.75;;;;;3.19;78.44;101836.31;5036407;28;45483;-67
2022/01/06 03:42:39;;;;;;;;;41.25;31.75;;;;;3.26;78.14;101832.38;5028915;28;46289;-66
2022/01/06 03:45:08;;;;;;;;;40.00;32.75;;;;;3.18;77.97;101829.19;5035964;28;45314;-66
2022/01/06 03:47:34;;;;;;;;;56.50;40.75;;;;;3.13;78.30;101830.31;5030744;28;45247;-66
2022/01/06 03:49:59;;;;;;;;;41.25;36.00;;;;;3.14;78.35;101823.97;5036281;28;45232;-66
2022/01/06 03:52:24;;;;;;;;;45.75;37.50;;;;;3.05;78.07;101828.94;5030667;28;46289;-66
2022/01/06 03:54:51;;;;;;;;;38.00;34.75;;;;;2.98;78.35;101828.34;5036508;28;45321;-66
2022/01/06 03:57:17;;;;;;;;;35.75;31.75;;;;;2.86;79.03;101828.91;5033003;28;45429;-66
2022/01/06 03:59:42;;;;;;;;;33.50;33.00;;;;;2.72;79.29;101829.56;5036492;28;45581;-66
2022/01/06 04:02:08;;;;;;;;;38.00;26.75;;;;;2.78;79.14;101830.25;5035632;28;46166;-66
2022/01/06 04:04:33;;;;;;;;;40.50;33.75;;;;;2.90;79.43;101830.53;5027948;28;45385;-66
2022/01/06 04:06:58;;;;;;;;;43.25;38.75;;;;;2.91;78.61;101826.91;5018014;28;45521;-66
2022/01/06 04:09:24;;;;;;;;;34.00;27.75;;;;;2.97;78.79;101825.72;5030208;28;45506;-66
2022/01/06 04:11:49;;;;;;;;;32.75;27.75;;;;;2.90;78.91;101830.53;5032836;28;45422;-66
2022/01/06 04:14:15;;;;;;;;;45.25;30.25;;;;;2.91;78.71;101832.28;5034288;28;45320;-66
2022/01/06 04:16:40;;;;;;;;;28.00;27.25;;;;;3.00;78.15;101837.19;5034019;28;45397;-66
2022/01/06 04:19:06;;;;;;;;;28.25;22.25;;;;;2.93;78.35;101819.63;5033650;28;45446;-66
2022/01/06 04:21:32;;;;;;;;;31.25;27.50;;;;;3.02;78.39;101819.19;5037253;28;46788;-67
2022/01/06 04:23:58;;;;;;;;;33.50;27.25;;;;;3.02;78.46;101808.47;5034109;28;45226;-67
2022/01/06 04:26:23;;;;;;;;;29.25;27.00;;;;;3.07;78.20;101827.00;5030856;28;45311;-66
2022/01/06 04:28:49;;;;;;;;;33.75;26.25;;;;;3.22;78.12;101831.63;5019073;28;45271;-66
2022/01/06 04:31:14;;;;;;;;;33.25;29.50;;;;;3.19;77.74;101833.63;5032357;28;45420;-67
2022/01/06 04:33:40;;;;;;;;;33.00;26.50;;;;;3.15;78.09;101840.94;5025348;28;45267;-67
2022/01/06 04:36:05;;;;;;;;;33.50;27.00;;;;;3.11;78.18;101842.91;5034238;28;46062;-66
2022/01/06 04:38:33;;;;;;;;;33.50;28.25;;;;;3.08;78.37;101844.88;5026623;28;45589;-67
2022/01/06 04:40:58;;;;;;;;;30.75;29.50;;;;;3.05;77.89;101842.34;5035328;28;45538;-66
2022/01/06 04:43:24;;;;;;;;;43.25;35.00;;;;;2.93;78.29;101846.47;5022622;28;45458;-67
2022/01/06 04:45:50;;;;;;;;;34.50;28.00;;;;;2.93;78.41;101841.09;5036755;28;45500;-66
2022/01/06 04:48:15;;;;;;;;;34.00;25.50;;;;;2.93;78.43;101843.78;5028670;28;45487;-67
2022/01/06 04:50:41;;;;;;;;;31.00;25.00;;;;;2.94;78.50;101836.59;5041364;28;45681;-66
2022/01/06 04:53:06;;;;;;;;;31.25;26.50;;;;;2.94;78.98;101840.16;5043896;28;45391;-66
2022/01/06 04:55:32;;;;;;;;;34.75;30.75;;;;;2.98;78.28;101839.09;5039909;28;45231;-67
2022/01/06 04:57:58;;;;;;;;;32.75;28.00;;;;;2.90;78.34;101830.53;5032777;28;45532;-66
2022/01/06 05:00:24;;;;;;;;;26.25;26.25;;;;;2.96;78.30;101845.47;5039151;28;46402;-67
2022/01/06 05:02:49;;;;;;;;;27.25;27.00;;;;;2.98;78.44;101838.22;5025172;28;45363;-66
2022/01/06 05:05:15;;;;;;;;;35.00;28.25;;;;;2.96;78.11;101849.03;5038248;28;45314;-66
2022/01/06 05:07:41;;;;;;;;;19.50;17.75;;;;;2.92;78.29;101851.94;5028261;28;45512;-66
2022/01/06 05:10:08;;;;;;;;;36.00;27.25;;;;;3.00;78.48;101852.41;5043051;28;46739;-66
2022/01/06 05:12:38;;;;;;;;;20.50;20.00;;;;;2.93;78.57;101846.47;5029909;28;45393;-66
2022/01/06 05:15:04;;;;;;;;;27.00;25.50;;;;;2.91;78.41;101856.44;5042814;28;45322;-67
2022/01/06 05:17:31;;;;;;;;;19.50;16.75;;;;;2.87;78.58;101860.19;5030710;28;45338;-66
2022/01/06 05:19:56;;;;;;;;;29.00;25.50;;;;;2.91;78.76;101861.81;5044095;28;45324;-67
2022/01/06 05:22:22;;;;;;;;;30.50;25.25;;;;;2.93;78.66;101869.75;5029136;28;45499;-67
2022/01/06 05:24:47;;;;;;;;;32.50;30.25;;;;;2.95;78.47;101870.56;5042190;28;45433;-67
2022/01/06 05:27:12;;;;;;;;;30.75;25.50;;;;;2.97;78.31;101872.25;5030769;28;45638;-66
2022/01/06 05:29:38;;;;;;;;;26.25;23.75;;;;;2.98;78.35;101862.38;5031169;28;46296;-66
2022/01/06 05:32:03;;;;;;;;;36.25;33.75;;;;;2.99;78.09;101869.50;5043893;28;45509;-67
2022/01/06 05:34:29;;;;;;;;;35.25;28.50;;;;;2.86;78.20;101865.63;5030974;28;45372;-66
2022/01/06 05:36:54;;;;;;;;;35.00;28.00;;;;;2.87;78.37;101873.59;5048287;28;45372;-67
2022/01/06 05:39:20;;;;;;;;;33.75;32.50;;;;;2.90;78.60;101870.78;5033347;28;45426;-66
2022/01/06 05:41:46;;;;;;;;;34.00;27.50;;;;;2.85;78.52;101888.91;5033735;28;45378;-67
2022/01/06 05:44:12;;;;;;;;;27.50;26.75;;;;;2.84;78.87;101884.50;5034393;28;45414;-67
2022/01/06 05:46:38;;;;;;;;;29.75;24.25;;;;;2.86;78.53;101887.97;5035059;28;45510;-66
2022/01/06 05:49:03;;;;;;;;;28.25;26.25;;;;;2.84;78.56;101889.88;5035200;28;45472;-66
2022/01/06 05:51:29;;;;;;;;;36.75;33.25;;;;;2.78;79.32;101889.28;5036232;28;45381;-66
2022/01/06 05:53:54;;;;;;;;;30.75;26.75;;;;;2.74;78.86;101880.50;5036347;28;45247;-66
2022/01/06 05:56:20;;;;;;;;;29.50;29.25;;;;;2.72;78.99;101890.41;5037310;28;45240;-67
2022/01/06 05:58:46;;;;;;;;;34.75;30.25;;;;;2.68;79.12;101888.84;5037247;28;45435;-66
2022/01/06 06:01:11;;;;;;;;;40.75;31.00;;;;;2.64;79.68;101903.31;5047066;28;45261;-66
2022/01/06 06:03:36;;;;;;;;;41.50;31.25;;;;;2.60;79.38;101899.03;5027410;28;45495;-67
2022/01/06 06:06:02;;;;;;;;;45.75;41.00;;;;;2.57;79.56;101896.47;5034616;28;45644;-67
2022/01/06 06:08:28;;;;;;;;;36.00;31.75;;;;;2.62;79.45;101907.91;5030431;28;45440;-67
2022/01/06 06:10:54;;;;;;;;;44.00;40.50;;;;;2.62;79.63;101918.63;5040079;28;45306;-67
2022/01/06 06:13:19;;;;;;;;;43.50;39.75;;;;;2.61;79.64;101912.38;5031354;28;45484;-66
2022/01/06 06:15:44;;;;;;;;;52.25;39.25;;;;;2.70;79.58;101913.78;5033528;28;45477;-66
2022/01/06 06:18:11;;;;;;;;;39.25;34.75;;;;;2.79;79.29;101910.66;5031493;28;46291;-67
2022/01/06 06:20:38;;;;;;;;;35.00;29.25;;;;;2.85;79.20;101920.28;5042238;28;45309;-67
2022/01/06 06:23:03;;;;;;;;;38.25;34.25;;;;;2.85;78.89;101917.59;5024964;28;45468;-66
2022/01/06 06:25:29;;;;;;;;;41.50;28.00;;;;;2.82;78.64;101910.53;5034393;28;45292;-67
2022/01/06 06:27:54;;;;;;;;;31.50;28.25;;;;;2.83;78.71;101908.72;5026936;28;45645;-67
2022/01/06 06:30:20;;;;;;;;;34.75;30.75;;;;;2.90;78.71;101915.56;5035082;28;45317;-67
2022/01/06 06:32:45;;;;;;;;;38.75;32.75;;;;;2.87;78.80;101918.38;5027835;28;45507;-67
2022/01/06 06:35:11;;;;;;;;;39.50;35.25;;;;;2.83;79.05;101925.69;5035237;28;45311;-67
2022/01/06 06:37:37;;;;;;;;;49.00;37.50;;;;;2.81;79.05;101926.69;5029478;28;46569;-66
2022/01/06 06:40:04;;;;;;;;;30.25;26.50;;;;;2.81;78.78;101926.69;5034117;28;45337;-67
2022/01/06 06:42:30;;;;;;;;;37.50;35.50;;;;;2.89;79.05;101925.41;5030095;28;45378;-69
2022/01/06 06:44:55;;;;;;;;;33.75;29.50;;;;;2.85;78.38;101928.31;5035406;28;45387;-67
2022/01/06 06:47:20;;;;;;;;;41.00;31.75;;;;;2.86;78.76;101930.91;5030979;28;46183;-67
2022/01/06 06:49:46;;;;;;;;;38.25;35.25;;;;;2.81;78.58;101922.22;5034834;28;45471;-67
2022/01/06 06:52:12;;;;;;;;;33.25;27.25;;;;;2.94;78.71;101931.44;5048053;28;45435;-66
2022/01/06 06:54:38;;;;;;;;;31.00;26.75;;;;;2.98;78.58;101932.19;5037746;28;45305;-67
2022/01/06 06:57:04;;;;;;;;;29.25;27.50;;;;;3.06;78.30;101932.69;5032921;28;45401;-67
2022/01/06 06:59:30;;;;;;;;;23.25;23.25;;;;;3.18;78.40;101936.59;5037774;28;45345;-67
2022/01/06 07:01:55;;;;;;;;;30.25;25.25;;;;;3.16;77.70;101935.78;5024596;28;45395;-67
2022/01/06 07:04:20;;;;;;;;;27.50;23.50;;;;;3.10;77.38;101940.53;5032488;28;45486;-67
2022/01/06 07:06:46;;;;;;;;;27.25;24.50;;;;;3.21;77.36;101944.53;5030097;28;45346;-68
2022/01/06 07:09:11;;;;;;;;;32.25;27.25;;;;;3.24;77.73;101939.00;5032908;28;45340;-67
2022/01/06 07:11:37;;;;;;;;;36.25;28.25;;;;;3.19;77.78;101939.22;5035413;28;45343;-67
2022/01/06 07:14:03;;;;;;;;;34.00;28.00;;;;;3.16;77.92;101950.09;5031640;28;45440;-67
2022/01/06 07:16:28;;;;;;;;;30.00;27.25;;;;;3.22;77.60;101954.31;5046045;28;48068;-67
2022/01/06 07:18:53;;;;;;;;;28.75;24.50;;;;;3.30;77.77;101941.38;5032566;28;45242;-67
2022/01/06 07:21:19;;;;;;;;;29.25;26.75;;;;;3.34;77.86;101945.69;5036048;28;45251;-67
2022/01/06 07:23:44;;;;;;;;;30.25;25.00;;;;;3.30;77.65;101944.94;5024406;28;45312;-67
2022/01/06 07:26:09;;;;;;;;;21.75;16.25;;;;;3.29;77.26;101950.41;5033426;28;46335;-67
2022/01/06 07:28:35;;;;;;;;;37.25;29.25;;;;;3.33;77.72;101941.25;5024058;28;45314;-67
2022/01/06 07:31:00;;;;;;;;;31.75;22.25;;;;;3.29;77.01;101945.88;5033902;28;45342;-67
2022/01/06 07:33:26;;;;;;;;;30.75;29.25;;;;;3.37;77.81;101956.25;5025892;28;45338;-67
2022/01/06 07:35:52;;;;;;;;;40.75;33.75;;;;;3.51;77.21;101953.78;5034586;28;45393;-67
2022/01/06 07:38:17;;;;;;;;;33.50;30.50;;;;;3.56;76.39;101954.47;5026221;28;45428;-67
2022/01/06 07:40:43;;;;;;;;;15.25;9.25;;;;;3.51;76.54;101948.41;5034559;28;45498;-67
2022/01/06 07:43:09;;;;;;;;;36.75;25.00;;;;;3.59;76.45;101951.59;5028077;28;45287;-67
2022/01/06 07:45:35;;;;;;;;;28.75;23.00;;;;;3.59;75.97;101954.28;5035227;28;45479;-67
2022/01/06 07:48:03;;;;;;;;;30.75;25.00;;;;;3.62;75.63;101958.66;5026156;28;45536;-67
2022/01/06 07:50:33;;;;;;;;;36.50;27.25;;;;;3.59;75.21;101970.41;5054919;28;45317;-67
2022/01/06 07:53:00;;;;;;;;;37.75;27.00;;;;;3.54;75.45;101967.09;5030067;28;45413;-67
2022/01/06 07:55:26;;;;;;;;;27.00;27.00;;;;;3.55;75.89;101960.78;5039882;28;46270;-67
2022/01/06 07:57:53;;;;;;;;;37.25;28.50;;;;;3.64;75.84;101978.28;5022878;28;45315;-67
2022/01/06 08:00:19;;;;;;;;;36.00;25.50;;;;;3.57;75.46;101966.94;5036739;28;45335;-67
2022/01/06 08:02:45;;;;;;;;;27.75;24.00;;;;;3.64;75.81;101973.78;5022637;28;45404;-67
2022/01/06 08:05:13;;;;;;;;;22.75;22.50;;;;;3.61;75.52;101971.22;5034331;28;45360;-67
2022/01/06 08:07:39;;;;;;;;;30.50;28.00;;;;;3.61;76.04;101965.84;5024933;28;45471;-67
2022/01/06 08:10:06;;;;;;;;;34.25;26.25;;;;;3.51;75.62;101968.09;5055174;28;45419;-67
2022/01/06 08:12:32;;;;;;;;;30.50;26.50;;;;;3.51;76.19;101968.09;5023893;28;45592;-67
2022/01/06 08:14:57;;;;;;;;;49.25;40.25;;;;;3.53;76.66;101966.22;5038636;28;46241;-67
2022/01/06 08:17:23;;;;;;;;;34.75;31.25;;;;;3.59;76.56;101965.03;5029776;28;45379;-67
2022/01/06 08:19:48;;;;;;;;;31.00;30.75;;;;;3.63;76.14;101974.72;5039827;28;45397;-67
2022/01/06 08:22:14;;;;;;;;;34.25;30.50;;;;;3.72;76.27;101978.78;5027603;28;45405;-67
2022/01/06 08:24:39;;;;;;;;;55.00;44.75;;;;;3.74;76.15;101979.56;5025749;28;45530;-67
2022/01/06 08:27:08;;;;;;;;;35.75;32.00;;;;;3.70;76.01;101975.28;5030712;28;45460;-67
2022/01/06 08:29:35;;;;;;;;;35.00;28.75;;;;;3.75;75.68;101981.28;5028231;28;45449;-65
2022/01/06 08:32:01;;;;;;;;;29.00;28.25;;;;;3.75;75.80;101982.16;5030603;28;45420;-67
2022/01/06 08:34:26;;;;;;;;;37.00;31.50;;;;;3.77;76.05;101988.34;5028420;28;46886;-68
2022/01/06 08:36:53;;;;;;;;;37.25;28.25;;;;;3.78;75.93;101982.03;5028255;28;46117;-68
2022/01/06 08:39:19;;;;;;;;;36.00;27.75;;;;;3.89;75.48;101993.13;5031478;28;45377;-67
2022/01/06 08:41:44;;;;;;;;;47.75;34.00;;;;;3.88;75.59;101988.69;5031755;28;45498;-67
2022/01/06 08:44:10;;;;;;;;;35.75;33.00;;;;;3.93;75.52;101980.41;5030915;28;47503;-67
2022/01/06 08:46:35;;;;;;;;;32.50;23.75;;;;;4.01;74.96;101994.34;5032890;28;45451;-67
2022/01/06 08:49:02;;;;;;;;;27.75;25.00;;;;;4.12;75.12;101994.66;5033625;28;45298;-68
2022/01/06 08:51:28;;;;;;;;;31.75;29.75;;;;;4.03;74.42;101980.78;5033919;28;45444;-67
2022/01/06 08:53:53;;;;;;;;;27.00;27.00;;;;;4.15;74.40;101993.66;5034466;28;46616;-67
2022/01/06 08:56:19;;;;;;;;;32.25;24.25;;;;;4.17;74.29;101994.41;5034473;28;45649;-67
2022/01/06 08:58:45;;;;;;;;;33.00;29.25;;;;;4.13;74.85;101992.84;5026914;28;45275;-68
2022/01/06 09:01:11;;;;;;;;;31.00;28.75;;;;;4.20;75.10;101988.91;5030649;28;45429;-67
2022/01/06 09:03:37;;;;;;;;;29.25;25.50;;;;;4.14;73.76;101999.97;5027131;28;45451;-67
2022/01/06 09:06:02;;;;;;;;;45.75;35.00;;;;;4.21;74.13;102001.41;5031844;28;45349;-67
2022/01/06 09:08:28;;;;;;;;;26.50;22.25;;;;;4.29;74.16;101993.81;5026049;28;45630;-67
2022/01/06 09:10:53;;;;;;;;;53.50;42.75;;;;;4.17;74.48;101981.84;5038380;28;45349;-66
2022/01/06 09:13:18;;;;;;;;;32.00;31.50;;;;;4.28;74.41;101984.00;5028769;28;45369;-66
2022/01/06 09:15:44;;;;;;;;;43.75;39.75;;;;;4.38;74.70;101993.38;5039552;28;45371;-66
2022/01/06 09:18:09;;;;;;;;;43.75;35.25;;;;;4.45;73.56;102002.00;5034948;28;45364;-66
2022/01/06 09:20:34;;;;;;;;;30.75;30.25;;;;;4.46;73.58;101995.63;5041278;28;45487;-66
2022/01/06 09:23:00;;;;;;;;;23.75;12.00;;;;;4.47;73.42;102002.75;5023066;28;45385;-67
2022/01/06 09:25:26;;;;;;;;;41.00;34.00;;;;;4.41;73.49;101995.88;5030208;28;45339;-66
2022/01/06 09:27:51;;;;;;;;;35.75;35.50;;;;;4.53;73.80;101991.69;5025454;28;45595;-66
2022/01/06 09:30:18;;;;;;;;;41.25;34.00;;;;;4.59;73.07;101994.94;5032353;28;45474;-66
2022/01/06 09:32:44;;;;;;;;;25.75;24.25;;;;;4.57;73.17;102001.34;5026809;28;45561;-67
2022/01/06 09:35:09;;;;;;;;;38.00;31.25;;;;;4.59;73.33;102003.00;5030423;28;45251;-66
2022/01/06 09:37:35;;;;;;;;;43.75;35.00;;;;;4.65;73.20;102007.19;5030673;28;45400;-66
2022/01/06 09:40:01;;;;;;;;;30.50;27.75;;;;;4.70;73.45;102015.91;5034449;28;45273;-67
2022/01/06 09:42:27;;;;;;;;;43.75;33.75;;;;;4.73;73.00;101998.72;5031377;28;46366;-67
2022/01/06 09:44:53;;;;;;;;;42.75;33.50;;;;;4.84;72.78;102020.56;5036222;28;45445;-67
2022/01/06 09:47:19;;;;;;;;;34.00;30.25;;;;;4.98;72.63;102020.69;5031714;28;45366;-67
2022/01/06 09:49:45;;;;;;;;;36.00;32.25;;;;;5.10;72.54;102028.16;5031560;28;45340;-67
2022/01/06 09:52:12;;;;;;;;;39.50;32.25;;;;;5.19;71.58;102018.69;5033431;28;45469;-67
2022/01/06 09:54:39;;;;;;;;;49.75;38.75;;;;;5.27;72.30;102016.44;5038279;28;45440;-67
2022/01/06 09:57:05;;;;;;;;;42.75;38.50;;;;;5.37;71.02;102023.94;5033046;28;45288;-67
2022/01/06 09:59:30;;;;;;;;;45.75;39.75;;;;;5.42;70.58;102024.56;5040101;28;45170;-67
2022/01/06 10:01:55;;;;;;;;;44.25;33.50;;;;;5.43;71.38;102029.00;5027409;28;45329;-66
2022/01/06 10:04:28;;;;;;;;;38.00;36.00;;;;;5.58;71.35;102029.97;5032670;28;45567;-67
2022/01/06 10:07:05;;;;;;;;;34.25;34.25;;;;;5.62;70.59;102022.59;5032612;28;45312;-67
2022/01/06 10:09:35;;;;;;;;;39.75;36.25;;;;;5.54;70.02;102031.13;5036703;28;45441;-67
2022/01/06 10:12:08;;;;;;;;;48.75;39.50;;;;;5.62;70.17;102023.47;5034331;28;46209;-67
2022/01/06 10:14:49;;;;;;;;;40.75;37.00;;;;;5.59;70.00;102026.31;5038462;28;45488;-67
2022/01/06 10:17:27;;;;;;;;;41.75;37.75;;;;;5.57;70.63;102030.03;5033549;28;45256;-67
2022/01/06 10:19:54;;;;;;;;;35.50;34.25;;;;;5.66;70.38;102024.16;5042408;28;45343;-67
2022/01/06 10:22:21;;;;;;;;;36.75;29.50;;;;;5.67;69.77;102025.91;5029300;28;45563;-67
2022/01/06 10:24:49;;;;;;;;;39.25;31.25;;;;;5.83;69.88;102022.25;5028127;28;45286;-67
2022/01/06 10:27:18;;;;;;;;;34.00;25.50;;;;;5.96;68.87;102022.47;5029513;28;45405;-67
2022/01/06 10:29:49;;;;;;;;;37.75;33.75;;;;;6.00;68.27;102028.53;5030711;28;45524;-67
2022/01/06 10:32:25;;;;;;;;;25.50;23.50;;;;;5.96;67.52;102027.84;5029136;28;46155;-67
2022/01/06 10:34:52;;;;;;;;;37.50;32.00;;;;;5.88;68.30;102019.31;5031484;28;45546;-67
2022/01/06 10:37:19;;;;;;;;;20.75;19.00;;;;;5.94;67.83;102032.44;5042906;28;45338;-68
2022/01/06 10:39:46;;;;;;;;;45.00;37.75;;;;;5.96;68.25;102032.38;5034698;28;45553;-67
2022/01/06 10:42:12;;;;;;;;;40.25;31.25;;;;;5.90;67.91;102030.91;5030478;28;45556;-67
2022/01/06 10:45:11;;;;;;;;;51.50;40.25;;;;;5.90;68.31;102033.59;5035677;28;45252;-67
2022/01/06 10:47:43;;;;;;;;;43.00;37.25;;;;;5.92;68.58;102015.47;5031683;28;45317;-67
2022/01/06 10:50:18;;;;;;;;;52.00;41.25;;;;;5.96;67.91;102011.66;5031204;28;45275;-67
2022/01/06 10:52:48;;;;;;;;;31.75;27.75;;;;;5.98;67.82;102011.59;5020779;28;47375;-67
2022/01/06 10:55:17;;;;;;;;;51.25;41.50;;;;;6.03;68.04;101998.69;5038653;28;45460;-67
2022/01/06 10:57:50;;;;;;;;;34.50;29.75;;;;;6.14;67.47;102017.81;5033986;28;45233;-67
2022/01/06 11:00:19;;;;;;;;;43.00;32.75;;;;;6.18;67.06;102003.19;5037713;28;45571;-67
2022/01/06 11:02:45;;;;;;;;;44.75;35.75;;;;;6.23;66.53;102010.06;5023883;28;45396;-67
2022/01/06 11:05:10;;;;;;;;;29.50;27.75;;;;;6.17;67.05;101999.63;5036017;28;45364;-67
2022/01/06 11:07:36;;;;;;;;;37.25;31.25;;;;;6.36;67.18;101993.13;5028771;28;45314;-67
2022/01/06 11:10:05;;;;;;;;;34.50;30.50;;;;;6.41;66.74;101988.34;5039574;28;45372;-67
2022/01/06 11:12:33;;;;;;;;;35.75;34.25;;;;;6.39;66.82;101990.25;5030051;28;45460;-67
2022/01/06 11:15:00;;;;;;;;;27.25;22.50;;;;;6.32;66.51;101980.78;5039990;28;46269;-66
2022/01/06 11:17:26;;;;;;;;;34.00;28.00;;;;;6.23;66.72;101983.06;5042929;28;45367;-66
2022/01/06 11:19:51;;;;;;;;;33.75;27.25;;;;;6.27;67.15;101977.50;5044086;28;45259;-67
2022/01/06 11:22:23;;;;;;;;;35.25;31.75;;;;;6.20;66.96;101977.88;5030093;28;45473;-67